createdAt,value
2023-03-25T00:00:19.181Z,8.75
2023-03-25T00:00:53.336Z,8.76
2023-03-25T00:01:26.081Z,8.73
2023-03-25T00:01:57.656Z,8.78
2023-03-25T00:02:30.341Z,8.80
2023-03-25T00:03:02.476Z,8.76
2023-03-25T00:03:34.158Z,8.77
2023-03-25T00:04:05.740Z,8.71
2023-03-25T00:04:39.200Z,8.74
2023-03-25T00:05:12.917Z,8.74
2023-03-25T00:05:44.475Z,8.68
2023-03-25T00:06:16.754Z,8.76
2023-03-25T00:06:48.408Z,8.79
2023-03-25T00:07:21.280Z,8.79
2023-03-25T00:07:53.095Z,8.78
2023-03-25T00:08:25.381Z,8.81
2023-03-25T00:08:57.401Z,8.78
2023-03-25T00:09:28.911Z,8.81
2023-03-25T00:10:00.492Z,8.86
2023-03-25T00:10:32.724Z,8.83
2023-03-25T00:11:04.811Z,8.79
2023-03-25T00:11:36.339Z,8.85
2023-03-25T00:12:07.964Z,8.82
2023-03-25T00:12:42.541Z,8.85
2023-03-25T00:13:14.138Z,8.75
2023-03-25T00:13:45.726Z,8.82
2023-03-25T00:14:17.683Z,8.75
2023-03-25T00:14:54.605Z,8.81
2023-03-25T00:15:26.592Z,8.83
2023-03-25T00:15:58.862Z,8.84
2023-03-25T00:16:31.485Z,8.76
2023-03-25T00:17:03.129Z,8.81
2023-03-25T00:17:36.685Z,8.79
2023-03-25T00:18:08.584Z,8.82
2023-03-25T00:18:40.198Z,8.89
2023-03-25T00:19:11.730Z,8.80
2023-03-25T00:19:43.275Z,8.88
2023-03-25T00:20:15.092Z,8.85
2023-03-25T00:20:49.563Z,8.83
2023-03-25T00:21:21.425Z,8.85
2023-03-25T00:21:54.184Z,8.81
2023-03-25T00:22:26.272Z,8.80
2023-03-25T00:22:58.294Z,8.81
2023-03-25T00:23:31.773Z,8.77
2023-03-25T00:24:03.468Z,8.82
2023-03-25T00:24:34.998Z,8.80
2023-03-25T00:25:24.666Z,8.82
2023-03-25T00:26:00.417Z,8.81
2023-03-25T00:26:32.328Z,8.78
2023-03-25T00:27:04.067Z,8.80
2023-03-25T00:27:35.666Z,8.82
2023-03-25T00:28:08.515Z,8.83
2023-03-25T00:28:40.199Z,8.75
2023-03-25T00:29:13.035Z,8.78
2023-03-25T00:29:45.860Z,8.82
2023-03-25T00:30:18.972Z,8.79
2023-03-25T00:30:52.508Z,8.78
2023-03-25T00:31:24.280Z,8.74
2023-03-25T00:31:55.982Z,8.75
2023-03-25T00:32:29.673Z,8.73
2023-03-25T00:33:01.897Z,8.78
2023-03-25T00:33:35.340Z,8.80
2023-03-25T00:34:07.445Z,8.78
2023-03-25T00:34:41.890Z,8.73
2023-03-25T00:35:17.682Z,8.77
2023-03-25T00:35:52.753Z,8.81
2023-03-25T00:36:24.536Z,8.84
2023-03-25T00:36:56.632Z,8.74
2023-03-25T00:37:28.312Z,8.71
2023-03-25T00:38:02.868Z,8.68
2023-03-25T00:38:35.534Z,8.72
2023-03-25T00:39:08.485Z,8.71
2023-03-25T00:39:40.070Z,8.77
2023-03-25T00:40:11.718Z,8.74
2023-03-25T00:40:43.768Z,8.71
2023-03-25T00:41:25.319Z,8.72
2023-03-25T00:41:57.283Z,8.73
2023-03-25T00:42:28.869Z,8.63
2023-03-25T00:43:01.869Z,8.63
2023-03-25T00:43:33.424Z,8.70
2023-03-25T00:44:05.234Z,8.68
2023-03-25T00:44:36.819Z,8.70
2023-03-25T00:45:08.979Z,8.76
2023-03-25T00:45:40.663Z,8.79
2023-03-25T00:46:12.313Z,8.64
2023-03-25T00:46:43.914Z,8.65
2023-03-25T00:47:18.723Z,8.62
2023-03-25T00:47:50.555Z,8.61
2023-03-25T00:48:22.161Z,8.64
2023-03-25T00:48:54.022Z,8.56
2023-03-25T00:49:25.660Z,8.59
2023-03-25T00:49:57.207Z,8.59
2023-03-25T00:50:28.914Z,8.62
2023-03-25T00:51:07.350Z,8.60
2023-03-25T00:51:52.358Z,8.57
2023-03-25T00:52:24.952Z,8.53
2023-03-25T00:52:56.516Z,8.50
2023-03-25T00:53:28.035Z,8.51
2023-03-25T00:54:03.508Z,8.52
2023-03-25T00:54:35.088Z,8.53
2023-03-25T00:55:07.575Z,8.50
2023-03-25T00:55:39.213Z,8.55
2023-03-25T00:56:10.993Z,8.52
2023-03-25T00:56:42.637Z,8.53
2023-03-25T00:57:14.249Z,8.51
2023-03-25T00:57:45.849Z,8.49
2023-03-25T00:58:17.536Z,8.53
2023-03-25T00:58:49.141Z,8.49
2023-03-25T00:59:21.038Z,8.50
2023-03-25T00:59:52.550Z,8.49
2023-03-25T01:00:24.109Z,8.50
2023-03-25T01:00:59.538Z,8.53
2023-03-25T01:01:31.164Z,8.52
2023-03-25T01:02:03.689Z,8.56
2023-03-25T01:02:35.945Z,8.47
2023-03-25T01:03:09.876Z,8.45
2023-03-25T01:03:43.941Z,8.47
2023-03-25T01:04:16.632Z,8.47
2023-03-25T01:04:49.734Z,8.56
2023-03-25T01:05:21.424Z,8.51
2023-03-25T01:05:54.793Z,8.53
2023-03-25T01:06:29.293Z,8.53
2023-03-25T01:07:01.637Z,8.53
2023-03-25T01:07:34.531Z,8.56
2023-03-25T01:08:06.171Z,8.58
2023-03-25T01:08:39.158Z,8.61
2023-03-25T01:09:16.260Z,8.57
2023-03-25T01:09:48.796Z,8.63
2023-03-25T01:10:20.364Z,8.63
2023-03-25T01:10:54.298Z,8.61
2023-03-25T01:11:28.182Z,8.60
2023-03-25T01:11:59.833Z,8.53
2023-03-25T01:12:31.754Z,8.56
2023-03-25T01:13:03.709Z,8.53
2023-03-25T01:13:35.367Z,8.59
2023-03-25T01:14:11.330Z,8.55
2023-03-25T01:14:43.213Z,8.58
2023-03-25T01:15:15.610Z,8.53
2023-03-25T01:15:47.479Z,8.50
2023-03-25T01:16:20.306Z,8.49
2023-03-25T01:16:51.916Z,8.56
2023-03-25T01:17:23.979Z,8.58
2023-03-25T01:17:55.687Z,8.60
2023-03-25T01:18:27.240Z,8.58
2023-03-25T01:18:58.786Z,8.59
2023-03-25T01:19:30.884Z,8.61
2023-03-25T01:20:02.439Z,8.64
2023-03-25T01:20:34.030Z,8.64
2023-03-25T01:21:06.225Z,8.61
2023-03-25T01:21:37.760Z,8.56
2023-03-25T01:22:09.484Z,8.63
2023-03-25T01:22:41.116Z,8.63
2023-03-25T01:23:12.958Z,8.62
2023-03-25T01:23:44.923Z,8.55
2023-03-25T01:24:16.585Z,8.57
2023-03-25T01:24:48.319Z,8.57
2023-03-25T01:25:19.884Z,8.63
2023-03-25T01:25:51.625Z,8.62
2023-03-25T01:26:23.325Z,8.58
2023-03-25T01:26:54.850Z,8.60
2023-03-25T01:27:26.947Z,8.55
2023-03-25T01:27:58.611Z,8.49
2023-03-25T01:28:31.325Z,8.55
2023-03-25T01:29:04.054Z,8.56
2023-03-25T01:29:35.725Z,8.55
2023-03-25T01:30:08.090Z,8.64
2023-03-25T01:30:39.668Z,8.62
2023-03-25T01:31:14.413Z,8.61
2023-03-25T01:31:46.214Z,8.60
2023-03-25T01:32:18.043Z,8.61
2023-03-25T01:32:49.665Z,8.63
2023-03-25T01:33:21.231Z,8.68
2023-03-25T01:33:52.824Z,8.63
2023-03-25T01:34:24.766Z,8.65
2023-03-25T01:34:57.302Z,8.65
2023-03-25T01:35:28.929Z,8.65
2023-03-25T01:36:00.873Z,8.64
2023-03-25T01:36:32.625Z,8.62
2023-03-25T01:37:04.609Z,8.61
2023-03-25T01:37:36.718Z,8.58
2023-03-25T01:38:08.453Z,8.62
2023-03-25T01:38:41.504Z,8.65
2023-03-25T01:39:18.663Z,8.65
2023-03-25T01:39:50.229Z,8.64
2023-03-25T01:40:23.799Z,8.65
2023-03-25T01:40:55.562Z,8.56
2023-03-25T01:41:33.220Z,8.52
2023-03-25T01:42:14.161Z,8.53
2023-03-25T01:42:46.470Z,8.59
2023-03-25T01:43:19.923Z,8.59
2023-03-25T01:44:07.740Z,8.65
2023-03-25T01:44:39.307Z,8.64
2023-03-25T01:45:28.827Z,8.66
2023-03-25T01:46:00.987Z,8.64
2023-03-25T01:46:32.766Z,8.65
2023-03-25T01:47:06.874Z,8.62
2023-03-25T01:47:38.403Z,8.65
2023-03-25T01:48:16.109Z,8.71
2023-03-25T01:48:50.022Z,8.66
2023-03-25T01:49:26.822Z,8.65
2023-03-25T01:49:58.377Z,8.64
2023-03-25T01:50:32.534Z,8.56
2023-03-25T01:51:08.735Z,8.58
2023-03-25T01:51:44.909Z,8.54
2023-03-25T01:52:25.243Z,8.61
2023-03-25T01:52:57.461Z,8.64
2023-03-25T01:53:30.522Z,8.57
2023-03-25T01:54:02.555Z,8.58
2023-03-25T01:54:34.957Z,8.55
2023-03-25T01:55:07.912Z,8.65
2023-03-25T01:55:40.299Z,8.60
2023-03-25T01:56:16.647Z,8.55
2023-03-25T01:56:49.853Z,8.59
2023-03-25T01:57:22.821Z,8.57
2023-03-25T01:57:56.566Z,8.55
2023-03-25T01:58:30.876Z,8.58
2023-03-25T01:59:05.222Z,8.64
2023-03-25T01:59:37.958Z,8.64
2023-03-25T02:00:11.032Z,8.66
2023-03-25T02:00:46.051Z,8.71
2023-03-25T02:01:21.733Z,8.65
2023-03-25T02:01:55.034Z,8.63
2023-03-25T02:02:34.902Z,8.63
2023-03-25T02:03:09.419Z,8.64
2023-03-25T02:03:46.387Z,8.67
2023-03-25T02:04:27.412Z,8.76
2023-03-25T02:05:07.882Z,8.59
2023-03-25T02:05:42.164Z,8.63
2023-03-25T02:06:34.674Z,8.65
2023-03-25T02:07:10.310Z,8.65
2023-03-25T02:07:43.128Z,8.66
2023-03-25T02:08:15.914Z,8.67
2023-03-25T02:08:47.740Z,8.65
2023-03-25T02:09:21.442Z,8.66
2023-03-25T02:09:52.981Z,8.68
2023-03-25T02:10:24.629Z,8.65
2023-03-25T02:10:56.187Z,8.68
2023-03-25T02:11:29.669Z,8.68
2023-03-25T02:12:01.895Z,8.71
2023-03-25T02:12:34.076Z,8.68
2023-03-25T02:13:06.814Z,8.62
2023-03-25T02:13:39.919Z,8.62
2023-03-25T02:14:23.052Z,8.64
2023-03-25T02:14:56.114Z,8.60
2023-03-25T02:15:30.015Z,8.53
2023-03-25T02:16:22.891Z,8.58
2023-03-25T02:17:25.525Z,8.63
2023-03-25T02:18:08.726Z,8.58
2023-03-25T02:18:58.400Z,8.64
2023-03-25T02:19:51.651Z,8.61
2023-03-25T02:20:41.675Z,8.61
2023-03-25T02:21:34.172Z,8.64
2023-03-25T02:22:37.591Z,8.58
2023-03-25T02:23:28.488Z,8.62
2023-03-25T02:24:14.366Z,8.64
2023-03-25T02:25:05.343Z,8.53
2023-03-25T02:25:58.660Z,8.56
2023-03-25T02:27:05.011Z,8.53
2023-03-25T02:28:26.208Z,8.55
2023-03-25T02:29:37.050Z,8.44
2023-03-25T02:30:34.190Z,8.43
2023-03-25T02:31:12.395Z,8.38
2023-03-25T02:31:43.983Z,8.44
2023-03-25T02:32:33.896Z,8.50
2023-03-25T02:33:30.433Z,8.42
2023-03-25T02:34:17.866Z,8.44
2023-03-25T02:35:04.336Z,8.46
2023-03-25T02:35:57.678Z,8.49
2023-03-25T02:36:44.160Z,8.43
2023-03-25T02:37:18.648Z,8.34
2023-03-25T02:38:14.329Z,8.38
2023-03-25T02:39:10.448Z,8.33
2023-03-25T02:39:47.831Z,8.31
2023-03-25T02:40:26.870Z,8.32
2023-03-25T02:41:05.653Z,8.34
2023-03-25T02:41:51.162Z,8.30
2023-03-25T02:42:27.085Z,8.33
2023-03-25T02:43:22.908Z,8.43
2023-03-25T02:44:01.212Z,8.40
2023-03-25T02:44:42.558Z,8.41
2023-03-25T02:45:29.916Z,8.42
2023-03-25T02:46:07.478Z,8.31
2023-03-25T02:46:43.595Z,8.37
2023-03-25T02:47:18.778Z,8.38
2023-03-25T02:47:55.296Z,8.39
2023-03-25T02:48:34.095Z,8.40
2023-03-25T02:49:09.200Z,8.38
2023-03-25T02:49:48.359Z,8.30
2023-03-25T02:50:24.758Z,8.27
2023-03-25T02:50:57.420Z,8.27
2023-03-25T02:51:36.974Z,8.34
2023-03-25T02:52:21.655Z,8.40
2023-03-25T02:52:58.326Z,8.29
2023-03-25T02:53:34.907Z,8.25
2023-03-25T02:54:11.062Z,8.35
2023-03-25T02:54:45.205Z,8.31
2023-03-25T02:55:18.958Z,8.32
2023-03-25T02:55:51.949Z,8.29
2023-03-25T02:56:26.055Z,8.21
2023-03-25T02:56:58.865Z,8.09
2023-03-25T02:57:33.384Z,8.22
2023-03-25T02:58:09.287Z,8.07
2023-03-25T02:58:41.872Z,8.13
2023-03-25T02:59:14.284Z,8.05
2023-03-25T02:59:47.056Z,8.06
2023-03-25T03:00:22.196Z,8.01
2023-03-25T03:00:59.042Z,7.96
2023-03-25T03:01:34.823Z,8.03
2023-03-25T03:02:09.395Z,7.98
2023-03-25T03:02:53.195Z,7.77
2023-03-25T03:03:27.358Z,7.77
2023-03-25T03:04:01.880Z,7.84
2023-03-25T03:04:45.718Z,7.92
2023-03-25T03:05:23.271Z,7.92
2023-03-25T03:05:59.911Z,7.83
2023-03-25T03:06:33.973Z,7.88
2023-03-25T03:07:05.736Z,7.86
2023-03-25T03:07:39.742Z,7.94
2023-03-25T03:08:29.421Z,7.88
2023-03-25T03:09:29.200Z,7.81
2023-03-25T03:10:08.810Z,7.75
2023-03-25T03:10:53.147Z,7.74
2023-03-25T03:11:30.457Z,7.77
2023-03-25T03:12:43.494Z,7.73
2023-03-25T03:13:36.466Z,7.74
2023-03-25T03:14:10.611Z,7.73
2023-03-25T03:14:42.157Z,7.73
2023-03-25T03:15:38.334Z,7.66
2023-03-25T03:16:15.917Z,7.68
2023-03-25T03:17:12.588Z,7.64
2023-03-25T03:17:58.196Z,7.62
2023-03-25T03:18:48.572Z,7.63
2023-03-25T03:19:25.238Z,7.64
2023-03-25T03:20:11.272Z,7.70
2023-03-25T03:21:09.545Z,7.66
2023-03-25T03:21:51.548Z,7.55
2023-03-25T03:22:41.783Z,7.49
2023-03-25T03:23:25.014Z,7.53
2023-03-25T03:23:58.285Z,7.57
2023-03-25T03:24:36.509Z,7.61
2023-03-25T03:25:17.790Z,7.56
2023-03-25T03:26:11.896Z,7.56
2023-03-25T03:26:58.235Z,7.63
2023-03-25T03:27:50.151Z,7.49
2023-03-25T03:28:32.582Z,7.53
2023-03-25T03:29:29.440Z,7.52
2023-03-25T03:30:08.584Z,7.53
2023-03-25T03:30:54.362Z,7.48
2023-03-25T03:31:48.302Z,7.50
2023-03-25T03:32:37.558Z,7.53
2023-03-25T03:33:15.440Z,7.46
2023-03-25T03:33:50.725Z,7.45
2023-03-25T03:34:34.529Z,7.48
2023-03-25T03:35:15.551Z,7.54
2023-03-25T03:35:51.771Z,7.51
2023-03-25T03:36:30.386Z,7.50
2023-03-25T03:37:03.725Z,7.51
2023-03-25T03:37:42.398Z,7.52
2023-03-25T03:38:16.322Z,7.51
2023-03-25T03:38:51.496Z,7.57
2023-03-25T03:39:23.733Z,7.50
2023-03-25T03:39:57.483Z,7.61
2023-03-25T03:40:31.862Z,7.60
2023-03-25T03:41:07.219Z,7.62
2023-03-25T03:41:41.683Z,7.60
2023-03-25T03:42:36.411Z,7.60
2023-03-25T03:43:13.507Z,7.63
2023-03-25T03:44:04.097Z,7.47
2023-03-25T03:44:38.411Z,7.59
2023-03-25T03:45:14.138Z,7.48
2023-03-25T03:45:48.682Z,7.51
2023-03-25T03:46:33.807Z,7.55
2023-03-25T03:47:11.872Z,7.59
2023-03-25T03:47:48.675Z,7.58
2023-03-25T03:48:23.971Z,7.60
2023-03-25T03:48:57.763Z,7.54
2023-03-25T03:49:38.289Z,7.54
2023-03-25T03:50:15.015Z,7.64
2023-03-25T03:50:50.769Z,7.63
2023-03-25T03:51:31.861Z,7.56
2023-03-25T03:52:08.822Z,7.44
2023-03-25T03:52:46.428Z,7.53
2023-03-25T03:53:23.690Z,7.51
2023-03-25T03:54:06.252Z,7.52
2023-03-25T03:54:51.919Z,7.45
2023-03-25T03:55:48.336Z,7.36
2023-03-25T03:56:23.508Z,7.32
2023-03-25T03:57:16.250Z,7.31
2023-03-25T03:57:56.488Z,7.21
2023-03-25T03:58:34.391Z,7.15
2023-03-25T03:59:11.895Z,7.11
2023-03-25T04:00:06.944Z,7.16
2023-03-25T04:01:00.347Z,7.12
2023-03-25T04:01:46.039Z,7.05
2023-03-25T04:02:27.313Z,7.16
2023-03-25T04:03:05.006Z,7.07
2023-03-25T04:03:43.415Z,7.04
2023-03-25T04:04:23.868Z,7.13
2023-03-25T04:04:55.786Z,7.07
2023-03-25T04:05:31.016Z,7.09
2023-03-25T04:06:09.769Z,7.09
2023-03-25T04:06:58.664Z,7.09
2023-03-25T04:07:41.928Z,7.02
2023-03-25T04:08:29.890Z,7.10
2023-03-25T04:09:09.561Z,7.12
2023-03-25T04:10:02.866Z,7.02
2023-03-25T04:10:52.722Z,7.07
2023-03-25T04:11:29.344Z,7.18
2023-03-25T04:12:05.332Z,7.18
2023-03-25T04:12:38.968Z,7.20
2023-03-25T04:13:13.934Z,7.15
2023-03-25T04:13:47.685Z,7.25
2023-03-25T04:14:19.728Z,7.25
2023-03-25T04:14:51.281Z,7.27
2023-03-25T04:15:22.911Z,7.24
2023-03-25T04:15:54.712Z,7.24
2023-03-25T04:16:26.473Z,7.27
2023-03-25T04:16:59.738Z,7.33
2023-03-25T04:17:33.154Z,7.28
2023-03-25T04:18:04.850Z,7.29
2023-03-25T04:18:36.426Z,7.26
2023-03-25T04:19:09.358Z,7.32
2023-03-25T04:19:41.419Z,7.36
2023-03-25T04:20:23.694Z,7.35
2023-03-25T04:20:56.246Z,7.25
2023-03-25T04:21:30.040Z,7.28
2023-03-25T04:22:03.420Z,7.25
2023-03-25T04:22:37.805Z,7.31
2023-03-25T04:23:09.848Z,7.33
2023-03-25T04:23:41.696Z,7.30
2023-03-25T04:24:16.687Z,7.33
2023-03-25T04:24:55.056Z,7.32
2023-03-25T04:25:26.725Z,7.36
2023-03-25T04:26:02.630Z,7.31
2023-03-25T04:26:37.763Z,7.30
2023-03-25T04:27:09.718Z,7.36
2023-03-25T04:27:41.552Z,7.42
2023-03-25T04:28:13.865Z,7.39
2023-03-25T04:28:45.688Z,7.38
2023-03-25T04:29:17.246Z,7.44
2023-03-25T04:29:49.359Z,7.43
2023-03-25T04:30:21.597Z,7.47
2023-03-25T04:30:55.802Z,7.42
2023-03-25T04:31:30.973Z,7.43
2023-03-25T04:32:02.704Z,7.40
2023-03-25T04:32:34.921Z,7.46
2023-03-25T04:33:07.211Z,7.47
2023-03-25T04:33:38.732Z,7.51
2023-03-25T04:34:10.572Z,7.52
2023-03-25T04:34:42.280Z,7.48
2023-03-25T04:35:15.333Z,7.42
2023-03-25T04:35:47.189Z,7.42
2023-03-25T04:36:18.825Z,7.42
2023-03-25T04:36:50.954Z,7.42
2023-03-25T04:37:23.965Z,7.34
2023-03-25T04:37:57.440Z,7.39
2023-03-25T04:38:29.561Z,7.38
2023-03-25T04:39:01.294Z,7.39
2023-03-25T04:39:33.101Z,7.38
2023-03-25T04:40:06.998Z,7.42
2023-03-25T04:40:40.614Z,7.46
2023-03-25T04:41:13.816Z,7.47
2023-03-25T04:41:45.454Z,7.45
2023-03-25T04:42:17.822Z,7.44
2023-03-25T04:42:49.390Z,7.42
2023-03-25T04:43:20.982Z,7.45
2023-03-25T04:43:52.759Z,7.45
2023-03-25T04:44:26.013Z,7.45
2023-03-25T04:45:00.631Z,7.43
2023-03-25T04:45:36.406Z,7.42
2023-03-25T04:46:11.277Z,7.42
2023-03-25T04:46:43.246Z,7.51
2023-03-25T04:47:16.818Z,7.36
2023-03-25T04:47:49.908Z,7.29
2023-03-25T04:48:26.063Z,7.29
2023-03-25T04:48:57.909Z,7.38
2023-03-25T04:49:29.847Z,7.40
2023-03-25T04:50:01.890Z,7.49
2023-03-25T04:50:34.617Z,7.35
2023-03-25T04:51:06.663Z,7.46
2023-03-25T04:51:38.284Z,7.43
2023-03-25T04:52:09.825Z,7.44
2023-03-25T04:52:41.355Z,7.45
2023-03-25T04:53:12.985Z,7.46
2023-03-25T04:53:44.645Z,7.42
2023-03-25T04:54:18.207Z,7.42
2023-03-25T04:54:51.237Z,7.41
2023-03-25T04:55:23.581Z,7.48
2023-03-25T04:55:55.965Z,7.44
2023-03-25T04:56:27.892Z,7.49
2023-03-25T04:56:59.557Z,7.46
2023-03-25T04:57:31.361Z,7.47
2023-03-25T04:58:02.924Z,7.41
2023-03-25T04:58:36.946Z,7.42
2023-03-25T04:59:09.702Z,7.44
2023-03-25T04:59:41.481Z,7.45
2023-03-25T05:00:18.116Z,7.41
2023-03-25T05:00:51.508Z,7.47
2023-03-25T05:01:32.827Z,7.48
2023-03-25T05:02:05.900Z,7.46
2023-03-25T05:02:38.038Z,7.51
2023-03-25T05:03:11.412Z,7.48
2023-03-25T05:03:42.988Z,7.44
2023-03-25T05:04:17.638Z,7.48
2023-03-25T05:04:50.020Z,7.46
2023-03-25T05:05:24.039Z,7.47
2023-03-25T05:05:56.473Z,7.55
2023-03-25T05:06:29.249Z,7.52
2023-03-25T05:07:00.846Z,7.52
2023-03-25T05:07:33.369Z,7.53
2023-03-25T05:08:04.927Z,7.49
2023-03-25T05:08:36.484Z,7.34
2023-03-25T05:09:10.953Z,7.40
2023-03-25T05:09:42.500Z,7.44
2023-03-25T05:10:14.316Z,7.46
2023-03-25T05:10:45.838Z,7.48
2023-03-25T05:11:17.830Z,7.49
2023-03-25T05:11:50.646Z,7.52
2023-03-25T05:12:22.174Z,7.51
2023-03-25T05:13:07.019Z,7.49
2023-03-25T05:13:38.620Z,7.53
2023-03-25T05:14:11.077Z,7.44
2023-03-25T05:14:42.682Z,7.47
2023-03-25T05:15:14.567Z,7.48
2023-03-25T05:15:47.445Z,7.50
2023-03-25T05:16:19.006Z,7.49
2023-03-25T05:16:50.752Z,7.57
2023-03-25T05:17:22.825Z,7.52
2023-03-25T05:17:54.530Z,7.55
2023-03-25T05:18:26.446Z,7.53
2023-03-25T05:19:01.137Z,7.49
2023-03-25T05:19:35.169Z,7.55
2023-03-25T05:20:10.712Z,7.49
2023-03-25T05:20:44.378Z,7.55
2023-03-25T05:21:16.460Z,7.54
2023-03-25T05:21:48.631Z,7.51
2023-03-25T05:22:20.317Z,7.50
2023-03-25T05:22:53.451Z,7.40
2023-03-25T05:23:25.161Z,7.46
2023-03-25T05:23:58.370Z,7.42
2023-03-25T05:24:30.512Z,7.50
2023-03-25T05:25:02.366Z,7.39
2023-03-25T05:25:34.563Z,7.46
2023-03-25T05:26:06.332Z,7.43
2023-03-25T05:26:39.833Z,7.41
2023-03-25T05:27:11.391Z,7.42
2023-03-25T05:27:42.898Z,7.44
2023-03-25T05:28:15.009Z,7.49
2023-03-25T05:28:46.642Z,7.46
2023-03-25T05:29:18.150Z,7.50
2023-03-25T05:29:51.967Z,7.50
2023-03-25T05:30:23.500Z,7.46
2023-03-25T05:30:55.131Z,7.42
2023-03-25T05:31:26.710Z,7.38
2023-03-25T05:31:58.308Z,7.34
2023-03-25T05:32:33.266Z,7.43
2023-03-25T05:33:05.858Z,7.50
2023-03-25T05:33:43.320Z,7.49
2023-03-25T05:34:17.197Z,7.45
2023-03-25T05:34:49.125Z,7.46
2023-03-25T05:35:21.001Z,7.53
2023-03-25T05:35:53.022Z,7.52
2023-03-25T05:36:25.191Z,7.55
2023-03-25T05:36:57.198Z,7.52
2023-03-25T05:37:28.962Z,7.56
2023-03-25T05:38:00.564Z,7.55
2023-03-25T05:38:33.185Z,7.50
2023-03-25T05:39:05.666Z,7.53
2023-03-25T05:39:38.087Z,7.55
2023-03-25T05:40:14.972Z,7.60
2023-03-25T05:40:48.265Z,7.56
2023-03-25T05:41:20.815Z,7.52
2023-03-25T05:41:55.636Z,7.46
2023-03-25T05:42:27.500Z,7.44
2023-03-25T05:42:59.286Z,7.52
2023-03-25T05:43:35.780Z,7.52
2023-03-25T05:44:11.634Z,7.54
2023-03-25T05:44:50.893Z,7.53
2023-03-25T05:45:23.351Z,7.59
2023-03-25T05:45:54.905Z,7.54
2023-03-25T05:46:28.557Z,7.43
2023-03-25T05:47:03.186Z,7.54
2023-03-25T05:47:34.840Z,7.47
2023-03-25T05:48:06.779Z,7.47
2023-03-25T05:48:41.272Z,7.50
2023-03-25T05:49:12.791Z,7.57
2023-03-25T05:49:44.355Z,7.52
2023-03-25T05:50:16.875Z,7.55
2023-03-25T05:50:48.530Z,7.53
2023-03-25T05:51:22.923Z,7.52
2023-03-25T05:51:55.953Z,7.58
2023-03-25T05:52:27.472Z,7.52
2023-03-25T05:52:59.949Z,7.54
2023-03-25T05:53:33.387Z,7.57
2023-03-25T05:54:10.981Z,7.56
2023-03-25T05:54:45.232Z,7.52
2023-03-25T05:55:20.152Z,7.50
2023-03-25T05:55:52.659Z,7.47
2023-03-25T05:56:25.656Z,7.45
2023-03-25T05:56:57.228Z,7.40
2023-03-25T05:57:28.996Z,7.46
2023-03-25T05:58:01.155Z,7.53
2023-03-25T05:58:32.705Z,7.57
2023-03-25T05:59:04.935Z,7.54
2023-03-25T05:59:40.813Z,7.46
2023-03-25T06:00:13.917Z,7.47
2023-03-25T06:00:47.095Z,7.45
2023-03-25T06:01:32.124Z,7.51
2023-03-25T06:02:10.056Z,7.46
2023-03-25T06:02:43.317Z,7.43
2023-03-25T06:03:15.349Z,7.43
2023-03-25T06:03:47.504Z,7.43
2023-03-25T06:04:19.184Z,7.48
2023-03-25T06:04:51.183Z,7.45
2023-03-25T06:05:23.677Z,7.34
2023-03-25T06:05:56.547Z,7.27
2023-03-25T06:06:28.675Z,7.21
2023-03-25T06:07:01.529Z,7.22
2023-03-25T06:07:33.092Z,7.21
2023-03-25T06:08:04.714Z,7.20
2023-03-25T06:08:36.354Z,7.13
2023-03-25T06:09:08.180Z,7.08
2023-03-25T06:09:46.042Z,7.06
2023-03-25T06:10:18.240Z,7.03
2023-03-25T06:10:49.781Z,6.92
2023-03-25T06:11:21.651Z,6.89
2023-03-25T06:11:53.648Z,6.78
2023-03-25T06:12:31.551Z,6.78
2023-03-25T06:13:03.574Z,6.71
2023-03-25T06:13:38.105Z,6.71
2023-03-25T06:14:09.872Z,6.68
2023-03-25T06:14:45.497Z,6.65
2023-03-25T06:15:29.477Z,6.64
2023-03-25T06:16:03.092Z,6.57
2023-03-25T06:16:35.571Z,6.62
2023-03-25T06:17:07.305Z,6.56
2023-03-25T06:17:40.299Z,6.58
2023-03-25T06:18:17.649Z,6.45
2023-03-25T06:18:51.293Z,6.40
2023-03-25T06:19:26.756Z,6.31
2023-03-25T06:20:00.467Z,6.28
2023-03-25T06:20:33.515Z,6.29
2023-03-25T06:21:06.234Z,6.25
2023-03-25T06:21:38.297Z,6.17
2023-03-25T06:22:11.090Z,6.13
2023-03-25T06:22:44.436Z,6.13
2023-03-25T06:23:16.125Z,6.11
2023-03-25T06:23:50.393Z,6.07
2023-03-25T06:24:22.154Z,6.08
2023-03-25T06:24:53.788Z,6.15
2023-03-25T06:25:26.749Z,6.14
2023-03-25T06:25:58.721Z,6.19
2023-03-25T06:26:30.684Z,6.24
2023-03-25T06:27:02.507Z,6.29
2023-03-25T06:27:34.782Z,6.31
2023-03-25T06:28:06.328Z,6.22
2023-03-25T06:28:37.932Z,6.23
2023-03-25T06:29:09.513Z,6.27
2023-03-25T06:29:43.959Z,6.33
2023-03-25T06:30:24.500Z,6.29
2023-03-25T06:30:57.063Z,6.34
2023-03-25T06:31:28.694Z,6.29
2023-03-25T06:32:00.279Z,6.30
2023-03-25T06:32:31.956Z,6.31
2023-03-25T06:33:06.109Z,6.34
2023-03-25T06:33:42.445Z,6.34
2023-03-25T06:34:15.412Z,6.28
2023-03-25T06:34:46.964Z,6.32
2023-03-25T06:35:20.139Z,6.31
2023-03-25T06:35:54.705Z,6.35
2023-03-25T06:36:26.304Z,6.40
2023-03-25T06:36:57.838Z,6.41
2023-03-25T06:37:29.474Z,6.41
2023-03-25T06:38:01.345Z,6.51
2023-03-25T06:38:40.353Z,6.40
2023-03-25T06:39:18.716Z,6.43
2023-03-25T06:39:50.257Z,6.42
2023-03-25T06:40:25.882Z,6.46
2023-03-25T06:40:57.571Z,6.47
2023-03-25T06:41:29.252Z,6.42
2023-03-25T06:42:13.723Z,6.46
2023-03-25T06:43:04.963Z,6.48
2023-03-25T06:43:39.241Z,6.47
2023-03-25T06:44:25.908Z,6.51
2023-03-25T06:45:16.255Z,6.53
2023-03-25T06:46:03.133Z,6.52
2023-03-25T06:46:56.554Z,6.54
2023-03-25T06:47:34.047Z,6.59
2023-03-25T06:48:05.944Z,6.60
2023-03-25T06:48:37.605Z,6.56
2023-03-25T06:49:09.220Z,6.60
2023-03-25T06:49:40.759Z,6.63
2023-03-25T06:50:12.415Z,6.68
2023-03-25T06:50:45.497Z,6.65
2023-03-25T06:51:17.157Z,6.73
2023-03-25T06:51:48.936Z,6.75
2023-03-25T06:52:20.654Z,6.76
2023-03-25T06:52:52.543Z,6.83
2023-03-25T06:53:24.292Z,6.86
2023-03-25T06:53:55.922Z,6.93
2023-03-25T06:54:27.752Z,6.97
2023-03-25T06:54:59.319Z,7.00
2023-03-25T06:55:30.935Z,7.01
2023-03-25T06:56:02.486Z,7.00
2023-03-25T06:56:34.297Z,7.04
2023-03-25T06:57:06.092Z,7.05
2023-03-25T06:57:37.826Z,7.04
2023-03-25T06:58:09.426Z,7.07
2023-03-25T06:58:41.863Z,7.04
2023-03-25T06:59:13.406Z,7.07
2023-03-25T06:59:45.577Z,7.03
2023-03-25T07:00:23.339Z,7.02
2023-03-25T07:00:55.410Z,7.02
2023-03-25T07:01:26.999Z,6.98
2023-03-25T07:01:59.223Z,7.01
2023-03-25T07:02:31.046Z,6.97
2023-03-25T07:03:02.953Z,6.98
2023-03-25T07:03:39.096Z,6.97
2023-03-25T07:04:10.782Z,6.95
2023-03-25T07:04:42.331Z,6.96
2023-03-25T07:05:13.997Z,7.00
2023-03-25T07:05:45.666Z,7.00
2023-03-25T07:06:19.663Z,7.08
2023-03-25T07:06:51.369Z,7.09
2023-03-25T07:07:23.116Z,7.14
2023-03-25T07:07:54.840Z,7.18
2023-03-25T07:08:26.490Z,7.18
2023-03-25T07:08:58.034Z,7.17
2023-03-25T07:09:29.761Z,7.18
2023-03-25T07:10:01.315Z,7.18
2023-03-25T07:10:33.053Z,7.17
2023-03-25T07:11:07.480Z,7.22
2023-03-25T07:11:39.113Z,7.20
2023-03-25T07:12:10.979Z,7.18
2023-03-25T07:12:42.546Z,7.21
2023-03-25T07:13:14.078Z,7.19
2023-03-25T07:13:45.650Z,7.22
2023-03-25T07:14:17.355Z,7.15
2023-03-25T07:14:55.954Z,7.21
2023-03-25T07:15:27.489Z,7.16
2023-03-25T07:15:59.719Z,7.13
2023-03-25T07:16:31.582Z,7.22
2023-03-25T07:17:03.178Z,7.25
2023-03-25T07:17:35.244Z,7.10
2023-03-25T07:18:06.929Z,7.18
2023-03-25T07:18:38.510Z,7.16
2023-03-25T07:19:10.084Z,7.22
2023-03-25T07:19:41.703Z,7.15
2023-03-25T07:20:15.090Z,7.21
2023-03-25T07:20:48.185Z,7.24
2023-03-25T07:21:19.726Z,7.24
2023-03-25T07:21:51.276Z,7.29
2023-03-25T07:22:22.934Z,7.29
2023-03-25T07:22:55.487Z,7.25
2023-03-25T07:23:27.195Z,7.22
2023-03-25T07:24:01.616Z,7.29
2023-03-25T07:24:40.253Z,7.24
2023-03-25T07:25:11.832Z,7.27
2023-03-25T07:25:43.444Z,7.35
2023-03-25T07:26:15.388Z,7.28
2023-03-25T07:26:46.970Z,7.34
2023-03-25T07:27:20.459Z,7.32
2023-03-25T07:28:01.971Z,7.26
2023-03-25T07:28:40.570Z,7.33
2023-03-25T07:29:12.163Z,7.31
2023-03-25T07:29:43.710Z,7.34
2023-03-25T07:30:15.418Z,7.39
2023-03-25T07:30:46.991Z,7.40
2023-03-25T07:31:18.593Z,7.41
2023-03-25T07:31:50.476Z,7.45
2023-03-25T07:32:22.097Z,7.49
2023-03-25T07:32:53.747Z,7.60
2023-03-25T07:33:25.354Z,7.64
2023-03-25T07:33:57.156Z,7.68
2023-03-25T07:34:28.697Z,7.66
2023-03-25T07:35:00.285Z,7.61
2023-03-25T07:35:32.107Z,7.74
2023-03-25T07:36:05.557Z,7.73
2023-03-25T07:36:37.115Z,7.66
2023-03-25T07:37:08.763Z,7.77
2023-03-25T07:37:40.285Z,7.77
2023-03-25T07:38:11.836Z,7.72
2023-03-25T07:38:43.474Z,7.79
2023-03-25T07:39:15.459Z,7.78
2023-03-25T07:39:47.019Z,7.77
2023-03-25T07:40:18.782Z,7.74
2023-03-25T07:40:50.588Z,7.78
2023-03-25T07:41:22.178Z,7.75
2023-03-25T07:42:09.780Z,7.79
2023-03-25T07:43:00.118Z,7.80
2023-03-25T07:43:50.473Z,7.86
2023-03-25T07:44:30.543Z,7.77
2023-03-25T07:45:02.145Z,7.79
2023-03-25T07:45:43.576Z,7.77
2023-03-25T07:46:16.460Z,7.76
2023-03-25T07:46:48.866Z,7.80
2023-03-25T07:47:20.436Z,7.82
2023-03-25T07:47:53.249Z,7.83
2023-03-25T07:48:25.084Z,7.75